createdAt,value
2022-11-14T00:04:00.639Z,67.15
2022-11-14T00:09:12.670Z,67.28
2022-11-14T00:14:23.870Z,67.06
2022-11-14T00:19:35.778Z,67.84
2022-11-14T00:24:48.195Z,67.60
2022-11-14T00:30:00.646Z,66.98
2022-11-14T00:35:11.998Z,67.05
2022-11-14T00:40:23.904Z,67.75
2022-11-14T00:45:35.531Z,67.52
2022-11-14T00:50:47.244Z,68.00
2022-11-14T00:55:59.262Z,67.44
2022-11-14T01:01:10.388Z,67.36
2022-11-14T01:06:22.434Z,68.27
2022-11-14T01:11:33.663Z,67.69
2022-11-14T01:16:45.408Z,67.30
2022-11-14T01:21:58.060Z,67.27
2022-11-14T01:27:12.798Z,67.42
2022-11-14T01:32:23.845Z,67.05
2022-11-14T01:37:36.130Z,67.74
2022-11-14T01:43:11.971Z,67.45
2022-11-14T01:48:29.285Z,67.47
2022-11-14T01:53:41.078Z,67.96
2022-11-14T01:59:12.000Z,67.67
2022-11-14T02:04:48.648Z,67.73
2022-11-14T02:10:03.089Z,67.41
2022-11-14T02:15:15.295Z,67.32
2022-11-14T02:20:33.283Z,67.49
2022-11-14T02:25:44.834Z,67.69
2022-11-14T02:30:56.956Z,67.49
2022-11-14T02:36:09.438Z,67.52
2022-11-14T02:41:20.382Z,67.81
2022-11-14T02:46:31.799Z,67.08
2022-11-14T02:51:43.626Z,67.49
2022-11-14T02:56:54.400Z,67.63
2022-11-14T03:02:06.120Z,67.52
2022-11-14T03:07:18.351Z,67.32
2022-11-14T03:12:29.853Z,67.40
2022-11-14T03:17:42.271Z,67.53
2022-11-14T03:22:53.986Z,67.18
2022-11-14T03:28:05.661Z,67.71
2022-11-14T03:33:17.951Z,67.40
2022-11-14T03:38:30.142Z,67.66
2022-11-14T03:43:41.106Z,67.87
2022-11-14T03:48:53.291Z,67.92
2022-11-14T03:54:05.127Z,67.63
2022-11-14T03:59:17.206Z,68.30
2022-11-14T04:04:29.221Z,67.57
2022-11-14T04:09:48.013Z,67.64
2022-11-14T04:14:59.058Z,67.74
2022-11-14T04:20:12.706Z,67.72
2022-11-14T04:25:24.318Z,67.70
2022-11-14T04:30:36.382Z,67.54
2022-11-14T04:35:49.470Z,67.89
2022-11-14T04:41:00.662Z,67.71
2022-11-14T04:46:12.317Z,68.03
2022-11-14T04:51:24.160Z,67.38
2022-11-14T04:56:39.522Z,67.23
2022-11-14T05:01:52.001Z,66.89
2022-11-14T05:07:04.097Z,66.97
2022-11-14T05:12:15.775Z,67.02
2022-11-14T05:17:27.494Z,66.57
2022-11-14T05:22:39.573Z,66.95
2022-11-14T05:27:50.211Z,66.79
2022-11-14T05:33:02.463Z,66.89
2022-11-14T05:38:14.249Z,66.59
2022-11-14T05:43:26.301Z,66.79
2022-11-14T05:48:38.017Z,66.89
2022-11-14T05:53:49.567Z,66.79
2022-11-14T05:59:05.237Z,66.47
2022-11-14T06:04:16.928Z,66.87
2022-11-14T06:09:28.511Z,67.37
2022-11-14T06:14:40.975Z,66.73
2022-11-14T06:19:52.733Z,64.22
2022-11-14T06:25:05.311Z,63.05
2022-11-14T06:30:17.439Z,62.90
2022-11-14T06:35:28.665Z,62.00
2022-11-14T06:40:40.843Z,61.29
2022-11-14T06:45:55.862Z,60.43
2022-11-14T06:51:07.654Z,60.97
2022-11-14T06:56:20.980Z,61.51
2022-11-14T07:01:32.739Z,61.40
2022-11-14T07:06:44.790Z,62.13
2022-11-14T07:11:56.814Z,59.62
2022-11-14T07:17:08.653Z,61.85
2022-11-14T07:22:23.990Z,57.43
2022-11-14T07:27:34.902Z,59.12
2022-11-14T07:32:46.505Z,60.17
2022-11-14T07:38:04.470Z,58.67
2022-11-14T07:43:16.615Z,59.17
2022-11-14T07:48:29.865Z,61.36
2022-11-14T07:53:41.174Z,59.01
2022-11-14T07:58:52.920Z,59.46
2022-11-14T08:04:05.424Z,58.53
2022-11-14T08:09:17.211Z,58.83
2022-11-14T08:14:29.383Z,57.94
2022-11-14T08:19:41.783Z,58.89
2022-11-14T08:24:57.018Z,58.34
2022-11-14T08:30:11.425Z,59.10
2022-11-14T08:35:23.587Z,58.68
2022-11-14T08:40:34.861Z,59.22
2022-11-14T08:45:45.838Z,59.89
2022-11-14T08:50:56.685Z,58.71
2022-11-14T08:56:10.793Z,59.09
2022-11-14T09:01:22.304Z,59.74
2022-11-14T09:06:34.416Z,59.55
2022-11-14T09:11:45.293Z,58.11
2022-11-14T09:16:59.686Z,59.04
2022-11-14T09:22:15.205Z,58.25
2022-11-14T09:27:32.289Z,58.79
2022-11-14T09:32:44.061Z,58.36
2022-11-14T09:38:07.230Z,58.64
2022-11-14T09:43:57.129Z,58.84
2022-11-14T09:49:35.904Z,59.44
2022-11-14T09:54:56.547Z,59.70
2022-11-14T10:00:16.586Z,59.92
2022-11-14T10:05:55.039Z,60.10
2022-11-14T10:11:14.790Z,60.07
2022-11-14T10:16:44.079Z,60.48
2022-11-14T10:22:19.262Z,60.71
2022-11-14T10:27:40.475Z,60.62
2022-11-14T10:33:04.297Z,61.07
2022-11-14T10:38:39.788Z,60.98
2022-11-14T10:43:54.376Z,61.00
2022-11-14T10:49:32.511Z,61.10
2022-11-14T10:54:53.550Z,61.37
2022-11-14T11:00:11.988Z,61.22
2022-11-14T11:05:26.973Z,61.28
2022-11-14T11:11:02.949Z,61.40
2022-11-14T11:16:14.559Z,61.57
2022-11-14T11:21:26.783Z,61.53
2022-11-14T11:26:38.246Z,61.72
2022-11-14T11:31:56.543Z,61.76
2022-11-14T11:37:18.950Z,61.69
2022-11-14T11:43:31.554Z,61.65
2022-11-14T11:48:19.658Z,61.68
2022-11-14T11:53:55.685Z,61.84
2022-11-14T11:59:29.283Z,61.78
2022-11-14T12:04:41.150Z,62.12
2022-11-14T12:10:11.313Z,62.44
2022-11-14T12:15:39.760Z,63.51
2022-11-14T12:21:37.631Z,63.40
2022-11-14T12:27:36.518Z,63.74
2022-11-14T12:33:08.820Z,63.84
2022-11-14T12:38:21.471Z,64.20
2022-11-14T12:43:43.793Z,63.97
2022-11-14T12:48:55.399Z,63.90
2022-11-14T12:54:45.418Z,64.07
2022-11-14T13:00:03.752Z,64.01
2022-11-14T13:05:28.841Z,63.79
2022-11-14T13:10:42.372Z,63.59
2022-11-14T13:16:43.295Z,63.47
2022-11-14T13:22:12.992Z,63.46
2022-11-14T13:27:52.198Z,63.20
2022-11-14T13:33:03.427Z,63.15
2022-11-14T13:38:39.820Z,63.26
2022-11-14T13:44:03.987Z,63.46
2022-11-14T13:49:44.322Z,63.24
2022-11-14T13:54:59.840Z,63.31
2022-11-14T14:00:20.952Z,63.14
2022-11-14T14:05:43.329Z,63.31
2022-11-14T14:11:21.286Z,62.95
2022-11-14T14:17:04.258Z,62.75
2022-11-14T14:22:38.208Z,62.91
2022-11-14T14:28:10.273Z,62.73
2022-11-14T14:33:22.703Z,63.28
2022-11-14T14:38:36.442Z,63.54
2022-11-14T14:43:54.616Z,63.26
2022-11-14T14:49:06.944Z,63.37
2022-11-14T14:54:23.169Z,63.65
2022-11-14T14:59:36.369Z,63.46
2022-11-14T15:04:48.451Z,63.39
2022-11-14T15:10:03.492Z,63.67
2022-11-14T15:15:17.661Z,63.65
2022-11-14T15:20:34.460Z,63.90
2022-11-14T15:25:46.920Z,63.50
2022-11-14T15:31:05.198Z,63.61
2022-11-14T15:36:20.705Z,63.41
2022-11-14T15:41:34.378Z,63.78
2022-11-14T15:46:49.636Z,63.58
2022-11-14T15:52:03.593Z,63.66
2022-11-14T15:57:18.076Z,63.36
2022-11-14T16:02:35.044Z,63.70
2022-11-14T16:07:47.021Z,63.75
2022-11-14T16:12:58.594Z,63.51
2022-11-14T16:18:12.962Z,64.41
2022-11-14T16:23:24.331Z,64.58
2022-11-14T16:28:36.004Z,64.70
2022-11-14T16:33:51.970Z,64.66
2022-11-14T16:39:04.826Z,65.33
2022-11-14T16:44:19.686Z,64.58
2022-11-14T16:49:31.982Z,65.05
2022-11-14T16:54:43.445Z,64.91
2022-11-14T16:59:55.196Z,65.29
2022-11-14T17:05:07.518Z,65.27
2022-11-14T17:10:18.719Z,65.58
2022-11-14T17:15:31.683Z,65.49
2022-11-14T17:20:44.413Z,65.77
2022-11-14T17:26:03.296Z,65.78
2022-11-14T17:31:16.676Z,66.04
2022-11-14T17:36:30.827Z,65.76
2022-11-14T17:41:42.784Z,65.79
2022-11-14T17:46:54.840Z,65.97
2022-11-14T17:52:06.879Z,65.78
2022-11-14T17:57:18.757Z,66.22
2022-11-14T18:02:30.749Z,64.62
2022-11-14T18:07:42.080Z,64.39
2022-11-14T18:12:53.753Z,64.17
2022-11-14T18:18:06.274Z,63.28
2022-11-14T18:23:18.410Z,62.74
2022-11-14T18:28:34.164Z,62.11
2022-11-14T18:33:46.154Z,61.82
2022-11-14T18:39:01.760Z,61.50
2022-11-14T18:44:13.564Z,61.28
2022-11-14T18:49:32.074Z,61.55
2022-11-14T18:54:45.250Z,61.21
2022-11-14T19:00:02.527Z,61.37
2022-11-14T19:05:14.576Z,61.49
2022-11-14T19:10:30.570Z,61.42
2022-11-14T19:15:45.111Z,61.52
2022-11-14T19:21:04.497Z,62.13
2022-11-14T19:26:17.720Z,63.05
2022-11-14T19:31:30.019Z,63.36
2022-11-14T19:36:59.583Z,63.51
2022-11-14T19:42:12.095Z,64.05
2022-11-14T19:47:23.190Z,64.03
2022-11-14T19:52:35.431Z,65.13
2022-11-14T19:57:47.401Z,65.86
2022-11-14T20:02:59.729Z,66.37
2022-11-14T20:08:11.962Z,66.44
2022-11-14T20:13:23.544Z,66.54
2022-11-14T20:18:35.586Z,66.73
2022-11-14T20:23:47.454Z,65.75
2022-11-14T20:28:59.999Z,66.49
2022-11-14T20:34:12.319Z,66.40
2022-11-14T20:39:23.134Z,67.17
2022-11-14T20:44:35.422Z,66.94
2022-11-14T20:49:48.467Z,66.76
2022-11-14T20:55:01.438Z,67.04
2022-11-14T21:00:14.087Z,67.25
2022-11-14T21:05:26.112Z,67.63
2022-11-14T21:10:49.619Z,67.50
2022-11-14T21:16:03.329Z,67.28
2022-11-14T21:21:17.614Z,67.01
2022-11-14T21:26:33.024Z,67.50
2022-11-14T21:31:46.948Z,68.04
2022-11-14T21:36:58.916Z,67.88
2022-11-14T21:42:12.949Z,67.10
2022-11-14T21:47:27.855Z,67.73
2022-11-14T21:52:39.869Z,67.46
2022-11-14T21:57:55.457Z,67.32
2022-11-14T22:03:25.119Z,67.09
2022-11-14T22:08:36.364Z,66.75
2022-11-14T22:13:48.186Z,66.67
2022-11-14T22:19:04.964Z,67.30
2022-11-14T22:24:17.493Z,66.79
2022-11-14T22:29:28.541Z,66.57
2022-11-14T22:34:40.128Z,66.61
2022-11-14T22:39:56.026Z,66.43
2022-11-14T22:45:10.112Z,66.57
2022-11-14T22:50:21.814Z,66.71
2022-11-14T22:55:34.019Z,66.44
2022-11-14T23:00:45.097Z,66.70
2022-11-14T23:05:56.543Z,66.45
2022-11-14T23:11:15.170Z,66.37
2022-11-14T23:16:29.875Z,66.64
2022-11-14T23:21:41.921Z,66.54
2022-11-14T23:26:53.858Z,66.33
2022-11-14T23:32:05.694Z,66.35
2022-11-14T23:37:17.246Z,66.27
2022-11-14T23:42:29.027Z,66.40
2022-11-14T23:47:41.252Z,66.39
2022-11-14T23:52:53.471Z,66.42
2022-11-14T23:58:05.184Z,66.24
